Thomasville, Missouri
Current Conditions -  °F | °C
As of 10:53 PM on Tuesday 21 Oct 2014 (Local Time) from KUNO Reporting Station
Clear Clear  
Wind Chill: 54°   Ceiling: Unl
Heat Index: 54°   Visibility: 10mi
Dew Point: 44°   Wind: 3mph
Humidity: 69%   Direction: 90°E
Pressure: 30.17"   Gusts: NA
Location:  36.9122°N, 91.496°W
Report Text: KUNO 220353Z AUTO 09003KT 10SM CLR 12/07 A3017 RMK AO2 SLP210 T01220067
Loading
Personal Weather Stations






























Interactive Weather Map
Tropical Storm Tracking
New forecast layout! Learn more

10-Day Weather Forecast

Advertisements
Track Severe Weather on mobile